createdAt,value
2023-02-13T00:01:28.894Z,54.43
2023-02-13T00:03:57.236Z,57.15
2023-02-13T00:06:25.689Z,54.95
2023-02-13T00:08:54.225Z,58.83
2023-02-13T00:11:22.709Z,59.25
2023-02-13T00:13:50.945Z,62.63
2023-02-13T00:16:20.630Z,62.28
2023-02-13T00:18:48.951Z,58.37
2023-02-13T00:21:17.342Z,57.13
2023-02-13T00:23:45.617Z,58.53
2023-02-13T00:26:17.020Z,59.05
2023-02-13T00:28:46.861Z,60.92
2023-02-13T00:31:17.782Z,59.90
2023-02-13T00:33:47.694Z,59.63
2023-02-13T00:36:19.260Z,59.30
2023-02-13T00:38:48.738Z,59.75
2023-02-13T00:41:18.184Z,61.70
2023-02-13T00:43:47.397Z,62.95
2023-02-13T00:46:16.237Z,60.15
2023-02-13T00:48:45.348Z,59.20
2023-02-13T00:51:15.250Z,57.83
2023-02-13T00:53:43.519Z,60.67
2023-02-13T00:56:11.899Z,60.42
2023-02-13T00:58:40.306Z,59.38
2023-02-13T01:01:08.684Z,55.53
2023-02-13T01:03:37.005Z,55.33
2023-02-13T01:06:06.438Z,58.13
2023-02-13T01:08:36.783Z,59.83
2023-02-13T01:11:05.474Z,60.25
2023-02-13T01:13:34.025Z,60.58
2023-02-13T01:16:02.618Z,60.38
2023-02-13T01:18:31.226Z,59.53
2023-02-13T01:21:02.680Z,63.70
2023-02-13T01:23:38.486Z,62.13
2023-02-13T01:26:08.966Z,55.78
2023-02-13T01:28:37.288Z,62.72
2023-02-13T01:31:06.710Z,57.90
2023-02-13T01:33:36.077Z,56.47
2023-02-13T01:36:09.074Z,63.15
2023-02-13T01:38:40.647Z,62.97
2023-02-13T01:41:10.513Z,62.25
2023-02-13T01:43:52.598Z,57.78
2023-02-13T01:46:29.135Z,61.28
2023-02-13T01:49:04.098Z,63.15
2023-02-13T01:51:35.296Z,61.55
2023-02-13T01:54:11.753Z,59.97
2023-02-13T01:56:44.611Z,64.90
2023-02-13T01:59:19.093Z,66.78
2023-02-13T02:01:48.922Z,65.25
2023-02-13T02:04:23.954Z,61.72
2023-02-13T02:06:57.302Z,60.35
2023-02-13T02:09:34.979Z,60.80
2023-02-13T02:12:09.757Z,61.00
2023-02-13T02:14:42.017Z,61.90
2023-02-13T02:17:12.807Z,59.78
2023-02-13T02:19:46.242Z,60.28
2023-02-13T02:23:15.882Z,58.38
2023-02-13T02:26:34.423Z,63.33
2023-02-13T02:29:45.544Z,58.67
2023-02-13T02:32:45.579Z,61.03
2023-02-13T02:35:28.514Z,59.13
2023-02-13T02:38:26.629Z,65.72
2023-02-13T02:41:08.279Z,61.60
2023-02-13T02:43:56.870Z,61.92
2023-02-13T02:46:32.827Z,58.90
2023-02-13T02:49:25.792Z,63.63
2023-02-13T02:52:05.203Z,61.58
2023-02-13T02:54:57.843Z,62.70
2023-02-13T02:57:55.743Z,62.67
2023-02-13T03:00:44.772Z,59.33
2023-02-13T03:03:37.079Z,60.50
2023-02-13T03:06:16.091Z,57.97
2023-02-13T03:09:09.630Z,57.90
2023-02-13T03:11:56.456Z,63.95
2023-02-13T03:14:28.457Z,60.67
2023-02-13T03:17:16.865Z,60.17
2023-02-13T03:20:16.918Z,63.47
2023-02-13T03:23:04.032Z,57.97
2023-02-13T03:25:40.930Z,60.50
2023-02-13T03:28:36.444Z,60.42
2023-02-13T03:31:14.507Z,57.85
2023-02-13T03:33:57.759Z,59.53
2023-02-13T03:36:53.963Z,62.90
2023-02-13T03:39:31.224Z,60.58
2023-02-13T03:42:05.301Z,62.25
2023-02-13T03:44:39.143Z,63.95
2023-02-13T03:47:10.242Z,62.38
2023-02-13T03:50:02.001Z,60.15
2023-02-13T03:52:35.219Z,61.03
2023-02-13T03:55:27.971Z,60.38
2023-02-13T03:58:18.761Z,62.88
2023-02-13T04:05:57.530Z,60.75
2023-02-13T04:08:26.017Z,60.17
2023-02-13T04:11:02.419Z,60.38
2023-02-13T04:13:36.234Z,62.17
2023-02-13T04:16:10.948Z,62.08
2023-02-13T04:18:41.043Z,59.25
2023-02-13T04:21:10.020Z,61.92
2023-02-13T04:23:38.457Z,61.15
2023-02-13T04:26:16.197Z,59.00
2023-02-13T04:28:44.842Z,59.60
2023-02-13T04:31:13.623Z,59.97
2023-02-13T04:33:42.254Z,61.28
2023-02-13T04:36:10.872Z,57.22
2023-02-13T04:38:39.188Z,57.95
2023-02-13T04:41:08.916Z,59.17
2023-02-13T04:43:37.379Z,61.50
2023-02-13T04:46:06.257Z,62.35
2023-02-13T04:48:34.703Z,58.47
2023-02-13T04:51:03.322Z,58.53
2023-02-13T04:53:31.610Z,62.03
2023-02-13T04:55:59.918Z,59.28
2023-02-13T04:58:29.661Z,62.70
2023-02-13T05:00:58.293Z,56.90
2023-02-13T05:03:26.959Z,57.05
2023-02-13T05:05:55.266Z,57.30
2023-02-13T05:08:23.672Z,58.13
2023-02-13T05:10:51.940Z,55.80
2023-02-13T05:13:21.721Z,61.35
2023-02-13T05:15:52.588Z,61.20
2023-02-13T05:18:21.139Z,60.95
2023-02-13T05:21:09.668Z,60.05
2023-02-13T05:23:37.424Z,60.92
2023-02-13T05:26:06.031Z,60.05
2023-02-13T05:28:51.930Z,57.17
2023-02-13T05:31:21.817Z,56.08
2023-02-13T05:33:50.247Z,59.22
2023-02-13T05:36:18.586Z,64.68
2023-02-13T05:38:46.901Z,61.60
2023-02-13T05:41:15.299Z,55.45
2023-02-13T05:43:43.781Z,62.10
2023-02-13T05:46:12.303Z,62.97
2023-02-13T05:48:42.054Z,56.75
2023-02-13T05:51:10.399Z,55.00
2023-02-13T05:53:38.805Z,61.25
2023-02-13T05:56:08.193Z,56.92
2023-02-13T05:58:37.632Z,60.47
2023-02-13T06:01:06.187Z,59.13
2023-02-13T06:03:35.210Z,55.83
2023-02-13T06:06:05.309Z,55.88
2023-02-13T06:08:33.690Z,57.72
2023-02-13T06:11:02.325Z,57.33
2023-02-13T06:13:31.039Z,58.05
2023-02-13T06:15:59.596Z,55.65
2023-02-13T06:18:28.174Z,54.33
2023-02-13T06:20:56.776Z,61.33
2023-02-13T06:23:26.798Z,54.13
2023-02-13T06:25:55.143Z,62.70
2023-02-13T06:28:23.728Z,61.97
2023-02-13T06:30:52.180Z,62.05
2023-02-13T06:33:20.614Z,62.50
2023-02-13T06:35:48.960Z,58.40
2023-02-13T06:38:19.071Z,59.88
2023-02-13T06:40:49.780Z,65.13
2023-02-13T06:43:19.048Z,64.63
2023-02-13T06:45:47.962Z,58.95
2023-02-13T06:48:16.440Z,64.00
2023-02-13T06:50:44.699Z,58.75
2023-02-13T06:53:12.999Z,60.22
2023-02-13T06:55:41.482Z,58.00
2023-02-13T06:58:11.180Z,65.00
2023-02-13T07:00:39.506Z,59.60
2023-02-13T07:03:09.952Z,60.97
2023-02-13T07:05:41.809Z,56.90
2023-02-13T07:08:10.735Z,57.47
2023-02-13T07:10:39.648Z,60.00
2023-02-13T07:13:10.392Z,59.42
2023-02-13T07:15:39.331Z,57.75
2023-02-13T07:18:09.417Z,57.55
2023-02-13T07:20:38.038Z,60.85
2023-02-13T07:23:07.967Z,56.25
2023-02-13T07:25:36.687Z,58.28
2023-02-13T07:28:06.712Z,56.80
2023-02-13T07:30:36.920Z,57.70
2023-02-13T07:33:06.403Z,58.25
2023-02-13T07:35:36.188Z,59.85
2023-02-13T07:38:04.950Z,58.20
2023-02-13T07:40:33.305Z,59.08
2023-02-13T07:43:02.917Z,54.22
2023-02-13T07:45:31.337Z,57.28
2023-02-13T07:48:01.122Z,62.13
2023-02-13T07:50:29.911Z,62.30
2023-02-13T07:52:59.861Z,55.85
2023-02-13T07:55:28.771Z,59.38
2023-02-13T07:57:57.651Z,57.40
2023-02-13T08:00:26.379Z,58.03
2023-02-13T08:02:54.823Z,60.75
2023-02-13T08:05:24.524Z,60.42
2023-02-13T08:07:53.885Z,58.70
2023-02-13T08:10:40.013Z,64.68
2023-02-13T08:13:09.976Z,59.35
2023-02-13T08:15:38.441Z,61.50
2023-02-13T08:18:06.876Z,65.25
2023-02-13T08:20:36.650Z,64.38
2023-02-13T08:23:05.671Z,60.58
2023-02-13T08:25:34.211Z,65.55
2023-02-13T08:28:03.043Z,71.68
2023-02-13T08:30:31.862Z,66.47
2023-02-13T08:33:00.157Z,74.30
2023-02-13T08:35:29.872Z,64.75
2023-02-13T08:38:03.908Z,65.80
2023-02-13T08:40:32.672Z,67.53
2023-02-13T08:43:02.465Z,65.63
2023-02-13T08:45:31.596Z,66.03
2023-02-13T08:48:01.276Z,69.03
2023-02-13T08:50:30.077Z,63.00
2023-02-13T08:53:01.013Z,66.70
2023-02-13T08:55:30.983Z,72.57
2023-02-13T08:58:02.474Z,69.80
2023-02-13T09:00:31.554Z,70.32
2023-02-13T09:03:03.266Z,69.85
2023-02-13T09:05:32.653Z,68.97
2023-02-13T09:08:03.846Z,78.22
2023-02-13T09:10:33.508Z,73.13
2023-02-13T09:13:02.274Z,74.95
2023-02-13T09:15:31.049Z,77.97
2023-02-13T09:17:59.529Z,83.50
2023-02-13T09:20:28.280Z,76.22
2023-02-13T09:22:57.880Z,68.78
2023-02-13T09:25:27.760Z,67.57
2023-02-13T09:27:56.248Z,70.57
2023-02-13T09:30:24.821Z,66.53
2023-02-13T09:32:54.446Z,64.43
2023-02-13T09:35:24.057Z,67.88
2023-02-13T09:37:52.426Z,72.43
2023-02-13T09:40:29.655Z,64.05
2023-02-13T09:43:08.996Z,68.07
2023-02-13T09:45:37.921Z,68.60
2023-02-13T09:48:09.278Z,70.50
2023-02-13T09:50:39.390Z,69.80
2023-02-13T09:53:07.777Z,72.20
2023-02-13T09:55:48.222Z,68.75
2023-02-13T09:58:26.397Z,71.07
2023-02-13T10:00:59.346Z,69.80
2023-02-13T10:03:32.700Z,68.85
2023-02-13T10:06:14.943Z,64.97
2023-02-13T10:09:02.326Z,68.72
2023-02-13T10:12:13.700Z,70.72
2023-02-13T10:14:50.451Z,68.38
2023-02-13T10:17:25.616Z,66.28
2023-02-13T10:19:58.723Z,68.57
2023-02-13T10:22:33.696Z,65.07
2023-02-13T10:25:07.660Z,70.43
2023-02-13T10:27:42.178Z,72.53
2023-02-13T10:30:20.327Z,65.30
2023-02-13T10:33:11.251Z,67.30
2023-02-13T10:35:40.326Z,72.05
2023-02-13T10:38:18.365Z,66.32
2023-02-13T10:41:06.658Z,73.45
2023-02-13T10:43:49.280Z,66.82
2023-02-13T10:46:26.885Z,72.72
2023-02-13T10:49:19.155Z,68.72
2023-02-13T10:51:56.700Z,68.90
2023-02-13T10:54:45.174Z,71.47
2023-02-13T10:57:23.366Z,72.53
2023-02-13T11:00:09.226Z,75.05
2023-02-13T11:02:38.744Z,71.80
2023-02-13T11:05:19.580Z,78.35
2023-02-13T11:10:19.592Z,78.65
2023-02-13T11:12:48.984Z,74.65
2023-02-13T11:15:28.295Z,75.07
2023-02-13T11:17:59.757Z,74.82
2023-02-13T11:20:34.881Z,75.93
2023-02-13T11:23:36.002Z,71.72
2023-02-13T11:26:09.206Z,75.93
2023-02-13T11:28:48.526Z,73.55
2023-02-13T11:31:29.019Z,78.07
2023-02-13T11:33:59.103Z,68.68
2023-02-13T11:36:32.808Z,72.20
2023-02-13T11:39:05.070Z,73.78
2023-02-13T11:41:41.410Z,69.25
2023-02-13T11:44:24.227Z,67.00
2023-02-13T11:46:55.729Z,62.72
2023-02-13T11:49:25.921Z,63.17
2023-02-13T11:51:57.068Z,66.82
2023-02-13T11:54:31.770Z,66.10
2023-02-13T11:57:05.197Z,56.10
2023-02-13T11:59:42.675Z,55.53
2023-02-13T12:02:21.200Z,50.45
2023-02-13T12:04:51.715Z,62.70
2023-02-13T12:07:27.035Z,57.42
2023-02-13T12:10:02.883Z,60.47
2023-02-13T12:12:38.915Z,60.08
2023-02-13T12:15:19.659Z,55.42
2023-02-13T12:18:06.715Z,53.42
2023-02-13T12:20:45.360Z,55.47
2023-02-13T12:23:30.461Z,55.30
2023-02-13T12:26:20.624Z,58.83
2023-02-13T12:29:13.930Z,50.40
2023-02-13T12:32:08.581Z,55.60
2023-02-13T12:35:15.135Z,52.47
2023-02-13T12:37:59.459Z,53.30
2023-02-13T12:40:46.932Z,51.40
2023-02-13T12:44:06.443Z,45.55
2023-02-13T12:46:42.752Z,47.50
2023-02-13T12:49:42.906Z,41.80
2023-02-13T12:52:37.979Z,44.45
2023-02-13T12:55:50.432Z,45.90
2023-02-13T12:58:57.282Z,44.22
2023-02-13T13:02:12.713Z,45.30
2023-02-13T13:04:56.472Z,42.92
2023-02-13T13:07:57.318Z,47.30
2023-02-13T13:13:26.246Z,45.42
2023-02-13T13:16:06.200Z,43.97
2023-02-13T13:18:48.562Z,41.80
2023-02-13T13:21:34.713Z,41.45
2023-02-13T13:24:15.209Z,39.30
2023-02-13T13:26:49.613Z,36.17
2023-02-13T13:29:23.810Z,34.40
2023-02-13T13:31:57.249Z,35.30
2023-02-13T13:34:28.017Z,31.10
2023-02-13T13:39:52.534Z,35.88
2023-02-13T13:42:28.364Z,31.98
2023-02-13T13:45:18.426Z,31.90
2023-02-13T13:48:07.293Z,35.25
2023-02-13T13:50:42.102Z,33.63
2023-02-13T13:53:14.762Z,35.00
2023-02-13T13:56:09.412Z,33.45
2023-02-13T13:58:43.817Z,34.40
2023-02-13T14:01:29.225Z,33.92
2023-02-13T14:03:59.941Z,33.83
2023-02-13T14:06:30.543Z,33.25
2023-02-13T14:09:09.720Z,31.48
2023-02-13T14:11:47.224Z,32.83
2023-02-13T14:14:49.440Z,32.85
2023-02-13T14:18:01.334Z,31.58
2023-02-13T14:20:41.398Z,34.13
2023-02-13T14:23:53.208Z,34.78
2023-02-13T14:26:39.494Z,33.88
2023-02-13T14:29:28.601Z,32.00
2023-02-13T14:32:08.537Z,34.00
2023-02-13T14:34:39.373Z,34.17
2023-02-13T14:40:33.552Z,34.40
2023-02-13T14:43:30.899Z,35.17
2023-02-13T14:46:10.232Z,37.05
2023-02-13T14:48:46.210Z,36.38
2023-02-13T14:51:28.809Z,40.10
2023-02-13T14:54:05.071Z,36.58
2023-02-13T14:56:34.446Z,36.67
2023-02-13T14:59:12.686Z,36.25
2023-02-13T15:01:51.856Z,34.13
2023-02-13T15:04:29.264Z,35.40
2023-02-13T15:07:02.310Z,34.45
2023-02-13T15:09:38.800Z,30.23
2023-02-13T15:12:27.525Z,32.80
2023-02-13T15:14:55.961Z,30.45
2023-02-13T15:17:30.167Z,33.00
2023-02-13T15:20:06.334Z,35.70
2023-02-13T15:22:39.154Z,32.65
2023-02-13T15:25:09.910Z,36.78
2023-02-13T15:30:23.830Z,33.67
2023-02-13T15:33:00.036Z,34.90
2023-02-13T15:35:31.532Z,33.00
2023-02-13T15:38:00.568Z,34.50
2023-02-13T15:40:32.204Z,36.50
2023-02-13T15:43:03.237Z,33.03
2023-02-13T15:45:32.028Z,33.50
2023-02-13T15:48:01.726Z,34.83
2023-02-13T15:50:35.182Z,33.25
2023-02-13T15:53:06.934Z,31.45
2023-02-13T15:55:37.153Z,34.30
2023-02-13T15:58:06.040Z,35.25
2023-02-13T16:00:37.949Z,32.05
2023-02-13T16:03:14.481Z,32.53
2023-02-13T16:05:43.252Z,34.47
2023-02-13T16:08:35.955Z,35.28
2023-02-13T16:11:35.718Z,34.88
2023-02-13T16:14:15.970Z,33.30
2023-02-13T16:16:50.077Z,30.48
2023-02-13T16:19:33.961Z,32.83
2023-02-13T16:22:15.715Z,31.90
2023-02-13T16:24:50.574Z,31.02
2023-02-13T16:27:22.494Z,31.38
2023-02-13T16:29:57.636Z,31.60
2023-02-13T16:32:31.379Z,30.83
2023-02-13T16:35:25.334Z,35.63
2023-02-13T16:37:57.609Z,36.22
2023-02-13T16:40:41.947Z,37.15
2023-02-13T16:43:46.198Z,32.40
2023-02-13T16:46:35.829Z,38.90
2023-02-13T16:49:20.703Z,34.78
2023-02-13T16:52:13.045Z,34.08
2023-02-13T16:54:52.467Z,34.83
2023-02-13T16:57:28.068Z,33.55
2023-02-13T17:00:02.030Z,35.28
2023-02-13T17:02:31.380Z,34.33
2023-02-13T17:05:17.304Z,37.13
2023-02-13T17:07:50.257Z,35.80
2023-02-13T17:10:27.180Z,34.30
2023-02-13T17:12:59.629Z,34.00
2023-02-13T17:15:31.546Z,34.60
2023-02-13T17:18:00.492Z,34.53
2023-02-13T17:20:32.020Z,37.25
2023-02-13T17:23:04.546Z,31.30
2023-02-13T17:25:35.387Z,32.40
2023-02-13T17:28:13.165Z,32.45
2023-02-13T17:30:42.163Z,36.85
2023-02-13T17:33:15.175Z,39.42
2023-02-13T17:35:43.635Z,35.55
2023-02-13T17:38:13.433Z,37.90
2023-02-13T17:40:43.111Z,39.43
2023-02-13T17:43:13.384Z,39.00
2023-02-13T17:45:42.080Z,39.08
2023-02-13T17:48:10.662Z,34.45
2023-02-13T17:50:39.898Z,38.72
2023-02-13T17:53:12.705Z,40.65
2023-02-13T17:55:42.402Z,36.10
2023-02-13T17:58:13.863Z,36.45
2023-02-13T18:00:42.262Z,36.67
2023-02-13T18:03:12.880Z,40.22
2023-02-13T18:05:42.493Z,34.28
2023-02-13T18:08:11.229Z,40.22
2023-02-13T18:10:42.238Z,41.15
2023-02-13T18:13:10.582Z,40.17
2023-02-13T18:15:43.093Z,39.00
2023-02-13T18:18:13.289Z,41.03
2023-02-13T18:20:41.770Z,37.85
2023-02-13T18:23:10.347Z,36.20
2023-02-13T18:25:38.751Z,37.88
2023-02-13T18:28:08.438Z,44.10
2023-02-13T18:30:36.705Z,40.05
2023-02-13T18:33:05.226Z,41.28
2023-02-13T18:35:36.820Z,40.58
2023-02-13T18:38:05.213Z,42.30
2023-02-13T18:40:33.680Z,42.92
2023-02-13T18:43:02.100Z,39.95
2023-02-13T18:45:31.997Z,42.45
2023-02-13T18:48:01.523Z,39.97
2023-02-13T18:50:29.919Z,35.65
2023-02-13T18:52:58.280Z,40.15
2023-02-13T18:55:26.570Z,38.40
2023-02-13T18:57:56.366Z,38.65
2023-02-13T19:00:25.771Z,40.67
2023-02-13T19:02:55.669Z,40.90
2023-02-13T19:05:24.325Z,41.35
2023-02-13T19:07:52.949Z,41.08
2023-02-13T19:10:21.457Z,37.78
2023-02-13T19:12:50.122Z,32.58
2023-02-13T19:15:18.480Z,36.25
2023-02-13T19:17:46.930Z,34.00
2023-02-13T19:20:17.120Z,34.63
2023-02-13T19:22:45.570Z,37.03
2023-02-13T19:25:14.023Z,39.50
2023-02-13T19:27:42.386Z,35.08
2023-02-13T19:30:12.572Z,33.47
2023-02-13T19:32:41.500Z,40.72
2023-02-13T19:35:09.930Z,38.58
2023-02-13T19:37:44.051Z,36.38
2023-02-13T19:40:14.850Z,36.45
2023-02-13T19:42:43.368Z,43.55
2023-02-13T19:45:12.467Z,40.38
2023-02-13T19:47:40.836Z,36.03
2023-02-13T19:50:10.800Z,41.85
2023-02-13T19:52:40.617Z,36.00
2023-02-13T19:55:09.600Z,25.10
2023-02-13T19:57:38.140Z,24.45
2023-02-13T20:00:09.503Z,31.60
2023-02-13T20:02:40.904Z,37.80
2023-02-13T20:05:09.665Z,32.63
2023-02-13T20:07:37.904Z,41.25
2023-02-13T20:10:10.739Z,43.92
2023-02-13T20:12:39.496Z,43.88
2023-02-13T20:15:08.622Z,36.88
2023-02-13T20:38:01.602Z,37.03
2023-02-13T20:40:30.127Z,50.20
2023-02-13T20:42:58.464Z,33.72
2023-02-13T20:45:27.163Z,45.92
2023-02-13T20:47:55.532Z,46.13
2023-02-13T20:50:23.922Z,49.78
2023-02-13T20:52:52.384Z,43.20
2023-02-13T20:55:22.097Z,47.50
2023-02-13T20:57:50.416Z,49.90
2023-02-13T21:00:19.445Z,49.72
2023-02-13T21:02:47.812Z,45.33
2023-02-13T21:05:16.508Z,44.60
2023-02-13T21:07:45.004Z,46.08
2023-02-13T21:10:13.391Z,43.38
2023-02-13T21:12:43.434Z,47.88
2023-02-13T21:15:11.986Z,45.05
2023-02-13T21:17:40.254Z,41.83
2023-02-13T21:20:10.030Z,49.67
2023-02-13T21:22:38.538Z,45.83
2023-02-13T21:25:08.000Z,54.95
2023-02-13T21:27:36.320Z,48.45
2023-02-13T21:30:08.130Z,44.90
2023-02-13T21:32:39.369Z,44.15
2023-02-13T21:35:09.317Z,50.50
2023-02-13T21:37:37.686Z,50.50
2023-02-13T21:40:08.201Z,53.60
2023-02-13T21:42:36.594Z,56.53
2023-02-13T21:45:06.694Z,52.33
2023-02-13T21:47:35.385Z,49.58
2023-02-13T21:50:04.036Z,53.80
2023-02-13T21:52:32.404Z,61.15
2023-02-13T21:55:00.705Z,49.90
2023-02-13T21:57:29.006Z,53.28
2023-02-13T21:59:57.348Z,55.65
2023-02-13T22:02:28.121Z,51.65
2023-02-13T22:04:56.481Z,54.97
2023-02-13T22:07:24.812Z,50.55
2023-02-13T22:09:53.182Z,47.60
2023-02-13T22:12:21.541Z,49.35
2023-02-13T22:14:49.892Z,49.42
2023-02-13T22:17:18.314Z,50.22
2023-02-13T22:19:48.016Z,54.38
2023-02-13T22:22:16.395Z,47.85
2023-02-13T22:24:44.927Z,50.92
2023-02-13T22:27:13.249Z,46.78
2023-02-13T22:29:41.542Z,48.10
2023-02-13T22:32:10.033Z,50.58
2023-02-13T22:34:38.431Z,47.90
2023-02-13T22:37:09.419Z,46.58
2023-02-13T22:39:39.886Z,47.75
2023-02-13T22:42:08.338Z,48.35
2023-02-13T22:44:36.594Z,48.92
2023-02-13T22:47:07.216Z,49.00
2023-02-13T22:49:35.957Z,49.30
2023-02-13T22:52:04.423Z,47.75
2023-02-13T22:54:34.197Z,47.30
2023-02-13T22:57:02.500Z,43.53
2023-02-13T22:59:37.329Z,45.35
2023-02-13T23:02:07.174Z,47.55
2023-02-13T23:04:35.698Z,45.72
2023-02-13T23:07:04.012Z,48.42
2023-02-13T23:09:33.717Z,47.63
2023-02-13T23:12:19.494Z,47.60
2023-02-13T23:14:47.884Z,47.17
2023-02-13T23:17:33.684Z,50.92
2023-02-13T23:20:02.173Z,43.60
2023-02-13T23:22:30.728Z,39.50
2023-02-13T23:25:01.558Z,39.15
2023-02-13T23:27:30.225Z,44.30
2023-02-13T23:29:58.582Z,47.25
2023-02-13T23:32:27.109Z,46.92
2023-02-13T23:34:55.699Z,44.38
2023-02-13T23:37:24.079Z,49.35
2023-02-13T23:39:52.465Z,48.08
2023-02-13T23:42:22.206Z,50.50
2023-02-13T23:44:50.554Z,45.73
2023-02-13T23:47:18.930Z,44.78
2023-02-13T23:49:47.381Z,43.88
2023-02-13T23:52:15.692Z,43.72
2023-02-13T23:54:46.061Z,46.85
2023-02-13T23:57:15.076Z,47.75
2023-02-13T23:59:44.922Z,45.22
